Metar GG30 METAR message from awiacja.imgw.pl Metar G30 EPKT METAR EPKT 240730Z 24009KT 6000 BKN006 11/11 Q1014 =